createdAt,value
2018-09-28T00:00:47.558Z,98415.53
2018-09-28T00:01:51.994Z,98415.02
2018-09-28T00:02:56.449Z,98413.00
2018-09-28T00:04:00.953Z,98411.41
2018-09-28T00:05:05.574Z,98412.62
2018-09-28T00:06:10.592Z,98413.07
2018-09-28T00:07:15.071Z,98412.37
2018-09-28T00:08:20.269Z,98411.19
2018-09-28T00:09:25.648Z,98413.59
2018-09-28T00:10:31.375Z,98411.44
2018-09-28T00:11:35.851Z,98406.99
2018-09-28T00:12:40.619Z,98409.23
2018-09-28T00:13:45.070Z,98408.86
2018-09-28T00:14:49.545Z,98416.02
2018-09-28T00:15:54.307Z,98413.65
2018-09-28T00:16:58.798Z,98413.14
2018-09-28T00:18:03.291Z,98407.44
2018-09-28T00:19:07.736Z,98407.28
2018-09-28T00:20:12.195Z,98404.91
2018-09-28T00:21:16.628Z,98401.89
2018-09-28T00:22:23.005Z,98402.83
2018-09-28T00:23:27.531Z,98402.94
2018-09-28T00:24:32.336Z,98407.61
2018-09-28T00:25:38.466Z,98404.15
2018-09-28T00:26:42.940Z,98403.09
2018-09-28T00:27:48.672Z,98401.30
2018-09-28T00:28:53.773Z,98400.16
2018-09-28T00:29:58.225Z,98398.48
2018-09-28T00:31:03.845Z,98395.84
2018-09-28T00:32:08.413Z,98398.52
2018-09-28T00:33:13.024Z,98395.64
2018-09-28T00:34:17.561Z,98392.63
2018-09-28T00:35:22.063Z,98395.06
2018-09-28T00:36:26.538Z,98394.42
2018-09-28T00:37:31.453Z,98392.53
2018-09-28T00:38:35.923Z,98392.22
2018-09-28T00:39:40.384Z,98392.90
2018-09-28T00:40:44.879Z,98392.49
2018-09-28T00:41:49.344Z,98390.36
2018-09-28T00:42:53.868Z,98384.63
2018-09-28T00:43:59.628Z,98381.67
2018-09-28T00:45:04.099Z,98385.64
2018-09-28T00:46:08.574Z,98384.39
2018-09-28T00:47:13.027Z,98388.97
2018-09-28T00:48:17.618Z,98383.84
2018-09-28T00:49:22.110Z,98384.35
2018-09-28T00:50:27.003Z,98383.67
2018-09-28T00:51:31.461Z,98379.98
2018-09-28T00:52:36.156Z,98383.17
2018-09-28T00:53:40.977Z,98380.80
2018-09-28T00:54:45.435Z,98374.02
2018-09-28T00:55:49.877Z,98380.55
2018-09-28T00:56:54.644Z,98379.17
2018-09-28T00:57:59.102Z,98378.29
2018-09-28T00:59:03.533Z,98370.34
2018-09-28T01:00:07.978Z,98376.66
2018-09-28T01:01:12.769Z,98372.39
2018-09-28T01:02:17.252Z,98382.50
2018-09-28T01:03:22.006Z,98380.05
2018-09-28T01:04:26.470Z,98389.63
2018-09-28T01:05:30.921Z,98382.86
2018-09-28T01:06:35.414Z,98385.58
2018-09-28T01:07:39.927Z,98383.68
2018-09-28T01:08:44.799Z,98387.50
2018-09-28T01:09:49.918Z,98395.71
2018-09-28T01:10:54.473Z,98400.04
2018-09-28T01:11:59.096Z,98397.84
2018-09-28T01:13:03.574Z,98397.74
2018-09-28T01:14:08.054Z,98403.13
2018-09-28T01:15:12.533Z,98397.61
2018-09-28T01:16:17.707Z,98394.45
2018-09-28T01:17:22.183Z,98391.33
2018-09-28T01:18:26.618Z,98399.11
2018-09-28T01:19:31.098Z,98393.47
2018-09-28T01:20:35.717Z,98387.00
2018-09-28T01:21:40.189Z,98387.88
2018-09-28T01:22:44.914Z,98388.56
2018-09-28T01:23:49.372Z,98395.02
2018-09-28T01:24:53.900Z,98395.33
2018-09-28T01:25:58.477Z,98394.58
2018-09-28T01:27:03.096Z,98386.56
2018-09-28T01:28:07.516Z,98388.88
2018-09-28T01:29:12.285Z,98389.75
2018-09-28T01:30:16.810Z,98385.56
2018-09-28T01:31:21.327Z,98384.15
2018-09-28T01:32:25.788Z,98384.15
2018-09-28T01:33:30.312Z,98389.00
2018-09-28T01:34:34.767Z,98385.43
2018-09-28T01:35:39.499Z,98389.00
2018-09-28T01:36:43.957Z,98389.00
2018-09-28T01:37:48.426Z,98386.94
2018-09-28T01:38:52.898Z,98386.94
2018-09-28T01:39:57.377Z,98385.81
2018-09-28T01:41:01.846Z,98381.36
2018-09-28T01:42:06.604Z,98382.17
2018-09-28T01:43:11.054Z,98378.48
2018-09-28T01:44:15.530Z,98382.23
2018-09-28T01:45:20.890Z,98383.42
2018-09-28T01:46:25.373Z,98386.24
2018-09-28T01:47:29.805Z,98389.12
2018-09-28T01:48:34.555Z,98389.56
2018-09-28T01:49:39.045Z,98389.31
2018-09-28T01:50:43.502Z,98383.83
2018-09-28T01:51:47.967Z,98386.75
2018-09-28T01:52:52.588Z,98388.88
2018-09-28T01:54:03.838Z,98389.31
2018-09-28T01:55:08.746Z,98392.98
2018-09-28T01:56:13.217Z,98389.16
2018-09-28T01:57:17.682Z,98388.50
2018-09-28T01:58:22.233Z,98383.92
2018-09-28T01:59:26.683Z,98386.62
2018-09-28T02:00:31.537Z,98382.92
2018-09-28T02:01:36.352Z,98383.11
2018-09-28T02:02:41.922Z,98376.84
2018-09-28T02:03:46.391Z,98374.66
2018-09-28T02:04:50.905Z,98379.72
2018-09-28T02:05:55.388Z,98379.84
2018-09-28T02:06:59.999Z,98375.80
2018-09-28T02:08:04.733Z,98374.42
2018-09-28T02:09:10.566Z,98375.42
2018-09-28T02:10:15.059Z,98372.10
2018-09-28T02:11:19.576Z,98370.78
2018-09-28T02:12:24.058Z,98369.73
2018-09-28T02:13:28.618Z,98368.80
2018-09-28T02:14:33.436Z,98375.05
2018-09-28T02:15:37.891Z,98374.55
2018-09-28T02:16:42.378Z,98370.33
2018-09-28T02:17:46.902Z,98369.39
2018-09-28T02:18:51.355Z,98367.70
2018-09-28T02:19:55.858Z,98369.08
2018-09-28T02:21:00.680Z,98373.71
2018-09-28T02:22:05.166Z,98376.63
2018-09-28T02:23:09.591Z,98370.05
2018-09-28T02:24:14.090Z,98367.66
2018-09-28T02:25:18.587Z,98369.03
2018-09-28T02:26:23.949Z,98371.84
2018-09-28T02:27:28.710Z,98372.41
2018-09-28T02:28:33.171Z,98371.59
2018-09-28T02:29:37.722Z,98375.12
2018-09-28T02:30:42.230Z,98372.47
2018-09-28T02:31:46.798Z,98373.84
2018-09-28T02:32:51.400Z,98376.72
2018-09-28T02:33:56.675Z,98375.73
2018-09-28T02:35:01.171Z,98374.73
2018-09-28T02:36:05.636Z,98369.73
2018-09-28T02:37:10.075Z,98374.80
2018-09-28T02:38:14.580Z,98372.53
2018-09-28T02:39:19.560Z,98374.45
2018-09-28T02:40:24.510Z,98372.08
2018-09-28T02:41:29.312Z,98368.90
2018-09-28T02:42:35.409Z,98370.53
2018-09-28T02:43:41.670Z,98371.02
2018-09-28T02:44:46.118Z,98373.84
2018-09-28T02:45:50.564Z,98370.03
2018-09-28T02:46:55.341Z,98369.57
2018-09-28T02:47:59.815Z,98370.41
2018-09-28T02:49:04.269Z,98373.35
2018-09-28T02:50:08.733Z,98373.27
2018-09-28T02:51:13.218Z,98369.48
2018-09-28T02:52:18.200Z,98365.23
2018-09-28T02:53:23.046Z,98365.98
2018-09-28T02:54:27.548Z,98361.63
2018-09-28T02:55:32.002Z,98362.73
2018-09-28T02:56:36.480Z,98358.16
2018-09-28T02:57:41.001Z,98353.44
2018-09-28T02:58:45.474Z,98354.97
2018-09-28T02:59:50.236Z,98351.22
2018-09-28T03:00:54.747Z,98356.73
2018-09-28T03:01:59.291Z,98352.17
2018-09-28T03:03:04.715Z,98355.55
2018-09-28T03:04:10.074Z,98354.84
2018-09-28T03:05:14.569Z,98352.02
2018-09-28T03:06:22.079Z,98344.02
2018-09-28T03:07:26.578Z,98348.75
2018-09-28T03:08:31.130Z,98353.59
2018-09-28T03:09:35.594Z,98352.73
2018-09-28T03:10:40.299Z,98351.53
2018-09-28T03:11:44.759Z,98350.98
2018-09-28T03:12:49.568Z,98349.08
2018-09-28T03:13:54.297Z,98355.16
2018-09-28T03:14:58.799Z,98349.84
2018-09-28T03:16:04.840Z,98354.08
2018-09-28T03:17:09.306Z,98348.32
2018-09-28T03:18:16.399Z,98349.73
2018-09-28T03:19:21.789Z,98353.27
2018-09-28T03:20:26.217Z,98354.14
2018-09-28T03:21:32.392Z,98352.45
2018-09-28T03:22:37.697Z,98355.66
2018-09-28T03:23:42.158Z,98356.03
2018-09-28T03:24:46.717Z,98357.17
2018-09-28T03:25:51.707Z,98362.47
2018-09-28T03:26:56.213Z,98365.73
2018-09-28T03:28:00.786Z,98358.61
2018-09-28T03:29:05.290Z,98359.42
2018-09-28T03:30:09.746Z,98358.66
2018-09-28T03:31:14.283Z,98364.30
2018-09-28T03:32:19.170Z,98361.53
2018-09-28T03:33:23.617Z,98366.91
2018-09-28T03:34:30.820Z,98362.83
2018-09-28T03:35:35.347Z,98363.59
2018-09-28T03:36:39.783Z,98364.23
2018-09-28T03:37:44.219Z,98359.18
2018-09-28T03:38:49.131Z,98360.98
2018-09-28T03:39:53.598Z,98363.02
2018-09-28T03:40:58.085Z,98352.10
2018-09-28T03:42:03.100Z,98354.33
2018-09-28T03:43:08.047Z,98360.03
2018-09-28T03:44:12.463Z,98362.91
2018-09-28T03:45:17.425Z,98364.27
2018-09-28T03:46:21.942Z,98362.31
2018-09-28T03:47:26.526Z,98366.88
2018-09-28T03:48:30.983Z,98361.02
2018-09-28T03:49:35.438Z,98363.02
2018-09-28T03:50:40.051Z,98366.93
2018-09-28T03:51:44.891Z,98369.72
2018-09-28T03:52:49.345Z,98370.69
2018-09-28T03:53:54.618Z,98376.78
2018-09-28T03:54:59.119Z,98373.36
2018-09-28T03:56:03.654Z,98372.77
2018-09-28T03:57:08.148Z,98368.25
2018-09-28T03:58:12.979Z,98361.35
2018-09-28T03:59:17.430Z,98366.40
2018-09-28T04:00:21.933Z,98371.98
2018-09-28T04:01:26.436Z,98374.88
2018-09-28T04:02:32.028Z,98377.75
2018-09-28T04:03:36.507Z,98368.24
2018-09-28T04:04:40.958Z,98368.63
2018-09-28T04:05:46.383Z,98373.50
2018-09-28T04:06:51.481Z,98375.02
2018-09-28T04:07:57.705Z,98376.61
2018-09-28T04:09:02.248Z,98374.92
2018-09-28T04:10:07.701Z,98376.98
2018-09-28T04:11:12.208Z,98376.06
2018-09-28T04:12:16.659Z,98379.16
2018-09-28T04:13:21.997Z,98374.47
2018-09-28T04:14:26.515Z,98379.08
2018-09-28T04:15:31.018Z,98387.05
2018-09-28T04:16:35.999Z,98382.44
2018-09-28T04:17:40.526Z,98382.29
2018-09-28T04:18:44.993Z,98380.27
2018-09-28T04:19:49.475Z,98381.42
2018-09-28T04:20:53.970Z,98382.29
2018-09-28T04:22:00.587Z,98385.11
2018-09-28T04:23:05.445Z,98387.95
2018-09-28T04:24:09.981Z,98392.08
2018-09-28T04:25:14.538Z,98388.27
2018-09-28T04:26:19.010Z,98387.18
2018-09-28T04:27:23.994Z,98389.39
2018-09-28T04:28:28.434Z,98392.23
2018-09-28T04:29:33.178Z,98385.59
2018-09-28T04:30:39.118Z,98390.70
2018-09-28T04:31:43.642Z,98386.95
2018-09-28T04:32:48.162Z,98390.27
2018-09-28T04:33:52.717Z,98388.69
2018-09-28T04:34:57.355Z,98384.66
2018-09-28T04:36:02.162Z,98386.84
2018-09-28T04:37:06.851Z,98385.97
2018-09-28T04:38:11.311Z,98384.59
2018-09-28T04:39:15.770Z,98388.91
2018-09-28T04:40:20.236Z,98388.73
2018-09-28T04:41:24.708Z,98383.22
2018-09-28T04:42:29.965Z,98379.63
2018-09-28T04:43:34.483Z,98376.27
2018-09-28T04:44:39.001Z,98381.54
2018-09-28T04:45:44.778Z,98382.69
2018-09-28T04:46:49.231Z,98381.73
2018-09-28T04:47:55.211Z,98384.32
2018-09-28T04:48:59.658Z,98388.23
2018-09-28T04:50:04.148Z,98384.59
2018-09-28T04:51:08.673Z,98392.50
2018-09-28T04:52:13.124Z,98391.89
2018-09-28T04:53:17.602Z,98394.83
2018-09-28T04:54:23.399Z,98402.78
2018-09-28T04:55:27.850Z,98403.73
2018-09-28T04:56:32.446Z,98401.53
2018-09-28T04:57:36.937Z,98395.81
2018-09-28T04:58:41.406Z,98390.14
2018-09-28T04:59:45.936Z,98399.13
2018-09-28T05:00:50.401Z,98404.29
2018-09-28T05:01:55.412Z,98402.00
2018-09-28T05:02:59.916Z,98400.02
2018-09-28T05:04:07.317Z,98396.83
2018-09-28T05:05:12.357Z,98404.42
2018-09-28T05:06:17.343Z,98404.25
2018-09-28T05:07:22.640Z,98402.84
2018-09-28T05:08:28.673Z,98403.95
2018-09-28T05:09:33.108Z,98402.67
2018-09-28T05:10:37.611Z,98400.61
2018-09-28T05:11:42.099Z,98406.45
2018-09-28T05:12:46.591Z,98402.28
2018-09-28T05:13:51.667Z,98406.75
2018-09-28T05:14:56.338Z,98407.09
2018-09-28T05:16:00.818Z,98406.11
2018-09-28T05:17:05.329Z,98408.61
2018-09-28T05:18:10.213Z,98410.24
2018-09-28T05:19:14.691Z,98411.44
2018-09-28T05:20:19.247Z,98415.20
2018-09-28T05:21:23.709Z,98413.61
2018-09-28T05:22:28.245Z,98410.64
2018-09-28T05:23:32.793Z,98417.26
2018-09-28T05:24:37.700Z,98418.41
2018-09-28T05:25:42.187Z,98419.09
2018-09-28T05:26:46.700Z,98417.66
2018-09-28T05:27:51.276Z,98418.44
2018-09-28T05:28:56.022Z,98424.67
2018-09-28T05:30:00.621Z,98424.84
2018-09-28T05:31:06.674Z,98415.97
2018-09-28T05:45:55.262Z,98448.77
2018-09-28T05:47:01.479Z,98460.63
2018-09-28T05:48:07.047Z,98461.51
2018-09-28T05:49:11.970Z,98456.17
2018-09-28T05:50:17.270Z,98459.97
2018-09-28T05:51:22.611Z,98462.25
2018-09-28T05:52:27.596Z,98458.75
2018-09-28T05:53:32.234Z,98459.25
2018-09-28T05:54:37.070Z,98458.80
2018-09-28T05:55:41.993Z,98466.67
2018-09-28T05:56:47.053Z,98462.27
2018-09-28T05:57:53.369Z,98463.39
2018-09-28T05:59:03.252Z,98468.33
2018-09-28T06:00:13.640Z,98468.48
2018-09-28T06:01:23.558Z,98467.41
2018-09-28T06:02:37.054Z,98471.39
2018-09-28T06:03:47.149Z,98464.95
2018-09-28T06:04:56.781Z,98469.36
2018-09-28T06:06:03.618Z,98470.09
2018-09-28T06:07:08.652Z,98470.88
2018-09-28T06:08:13.946Z,98473.27
2018-09-28T06:09:19.130Z,98471.48
2018-09-28T06:10:25.015Z,98470.08
2018-09-28T06:11:37.576Z,98471.71
2018-09-28T06:12:42.640Z,98468.72
2018-09-28T06:13:49.602Z,98473.44
2018-09-28T06:14:54.733Z,98473.00
2018-09-28T06:16:01.981Z,98470.67
2018-09-28T06:17:07.203Z,98470.72
2018-09-28T06:18:11.726Z,98470.08
2018-09-28T06:19:17.289Z,98463.98
2018-09-28T06:20:22.089Z,98466.15
2018-09-28T06:21:26.607Z,98468.94
2018-09-28T06:22:31.298Z,98462.14
2018-09-28T06:23:36.116Z,98462.78
2018-09-28T06:24:41.233Z,98466.14
2018-09-28T06:25:45.963Z,98460.53
2018-09-28T06:26:51.841Z,98464.90
2018-09-28T06:27:56.343Z,98462.83
2018-09-28T06:29:00.879Z,98463.00
2018-09-28T06:30:06.688Z,98468.05
2018-09-28T06:31:11.159Z,98466.72
2018-09-28T06:32:15.631Z,98464.55
2018-09-28T06:33:20.188Z,98464.08
2018-09-28T06:34:25.748Z,98472.05
2018-09-28T06:35:30.386Z,98466.95
2018-09-28T06:36:37.156Z,98472.98
2018-09-28T06:37:41.622Z,98475.72
2018-09-28T06:38:46.065Z,98475.56
2018-09-28T06:39:50.574Z,98476.87
2018-09-28T06:40:57.134Z,98477.28
2018-09-28T06:42:03.252Z,98478.69
2018-09-28T06:43:08.088Z,98481.72
2018-09-28T06:44:15.367Z,98479.70
2018-09-28T06:45:19.802Z,98482.45
2018-09-28T06:46:24.560Z,98481.67
2018-09-28T06:47:29.818Z,98484.45
2018-09-28T06:48:34.838Z,98489.34
2018-09-28T06:49:41.266Z,98487.33
2018-09-28T06:50:45.717Z,98491.42
2018-09-28T06:51:51.090Z,98486.94
2018-09-28T06:52:56.198Z,98484.98
2018-09-28T06:54:01.326Z,98491.70
2018-09-28T06:55:08.652Z,98495.55
2018-09-28T06:56:13.099Z,98504.59
2018-09-28T06:57:18.220Z,98502.19
2018-09-28T06:58:23.269Z,98502.34
2018-09-28T06:59:27.771Z,98508.16
2018-09-28T07:00:32.274Z,98505.48
2018-09-28T07:01:38.490Z,98496.31
2018-09-28T07:02:43.646Z,98505.91
2018-09-28T07:03:48.160Z,98504.28
2018-09-28T07:04:52.809Z,98506.94
2018-09-28T07:05:57.312Z,98506.50
2018-09-28T07:07:01.821Z,98506.38
2018-09-28T07:08:07.622Z,98502.86
2018-09-28T07:09:13.226Z,98513.18
2018-09-28T07:10:17.911Z,98515.19
2018-09-28T07:11:22.531Z,98513.05
2018-09-28T07:12:27.001Z,98518.20
2018-09-28T07:13:31.589Z,98518.53
2018-09-28T07:14:37.556Z,98519.32
2018-09-28T07:15:42.241Z,98518.33
2018-09-28T07:16:46.819Z,98515.73
2018-09-28T07:17:52.143Z,98511.10
2018-09-28T07:18:56.799Z,98514.88
2018-09-28T07:20:01.464Z,98514.00
2018-09-28T07:21:06.374Z,98514.66
2018-09-28T07:22:10.854Z,98527.50
2018-09-28T07:23:15.345Z,98533.59
2018-09-28T07:24:27.501Z,98533.97
2018-09-28T07:25:32.699Z,98535.63
2018-09-28T07:26:37.146Z,98531.09
2018-09-28T07:27:42.421Z,98531.91
2018-09-28T07:28:47.564Z,98538.55
2018-09-28T07:29:55.492Z,98540.28
2018-09-28T07:31:00.131Z,98541.99
2018-09-28T07:32:05.267Z,98540.08
2018-09-28T07:33:10.758Z,98544.09
2018-09-28T07:34:16.687Z,98548.19
2018-09-28T07:35:22.091Z,98548.11
2018-09-28T07:36:26.611Z,98543.06
2018-09-28T07:37:31.291Z,98549.48
2018-09-28T07:38:35.857Z,98545.30
2018-09-28T07:39:44.283Z,98542.69
2018-09-28T07:40:52.786Z,98539.05
2018-09-28T07:41:57.377Z,98538.58
2018-09-28T07:43:01.934Z,98537.55
2018-09-28T07:44:09.095Z,98544.58
2018-09-28T07:45:13.565Z,98545.74
2018-09-28T07:46:18.412Z,98538.84
2018-09-28T07:47:23.246Z,98545.42
2018-09-28T07:48:27.756Z,98544.69
2018-09-28T07:49:33.643Z,98546.58
2018-09-28T07:50:42.593Z,98551.88
2018-09-28T07:51:49.688Z,98545.55
2018-09-28T07:52:54.206Z,98550.02
2018-09-28T07:53:59.334Z,98557.09
2018-09-28T07:55:05.857Z,98558.09
2018-09-28T07:56:10.385Z,98556.47
2018-09-28T07:57:15.584Z,98556.33
2018-09-28T07:58:20.470Z,98551.88
2018-09-28T07:59:26.948Z,98559.05
2018-09-28T08:00:35.131Z,98558.16
2018-09-28T08:01:40.337Z,98562.11
2018-09-28T08:02:45.441Z,98562.34
2018-09-28T08:03:50.142Z,98561.59
2018-09-28T08:04:55.870Z,98565.12
2018-09-28T08:06:01.336Z,98564.53
2018-09-28T08:07:07.312Z,98564.91
2018-09-28T08:08:12.489Z,98565.55
2018-09-28T08:09:16.978Z,98566.31
2018-09-28T08:10:21.581Z,98564.94
2018-09-28T08:11:29.603Z,98563.30
2018-09-28T08:12:35.359Z,98566.58
2018-09-28T08:13:41.724Z,98572.13
2018-09-28T08:14:46.553Z,98564.56
2018-09-28T08:15:51.738Z,98571.27
2018-09-28T08:16:56.762Z,98571.58
2018-09-28T08:18:02.472Z,98563.42
2018-09-28T08:19:08.621Z,98576.09
2018-09-28T08:20:14.308Z,98574.66
2018-09-28T08:21:19.582Z,98573.84
2018-09-28T08:22:25.052Z,98582.87
2018-09-28T08:23:30.899Z,98584.67
2018-09-28T08:24:35.791Z,98586.88
2018-09-28T08:25:42.375Z,98586.31
2018-09-28T08:26:47.538Z,98588.48
2018-09-28T08:27:52.690Z,98584.09
2018-09-28T08:28:57.330Z,98582.34
2018-09-28T08:30:02.016Z,98588.11
2018-09-28T08:31:08.549Z,98587.98
2018-09-28T08:32:12.990Z,98591.00
2018-09-28T08:33:17.511Z,98594.88
2018-09-28T08:34:22.044Z,98597.20
2018-09-28T08:35:28.064Z,98591.75
2018-09-28T08:36:32.658Z,98595.52
2018-09-28T08:37:38.703Z,98590.62
2018-09-28T08:38:43.792Z,98594.70
2018-09-28T08:39:48.297Z,98590.80
2018-09-28T08:40:55.760Z,98593.94
2018-09-28T08:42:02.265Z,98589.33
2018-09-28T08:43:08.291Z,98590.77
2018-09-28T08:44:14.987Z,98593.81
2018-09-28T08:45:21.329Z,98597.30
2018-09-28T08:46:25.880Z,98598.55
2018-09-28T08:47:32.462Z,98599.11
2018-09-28T08:48:37.026Z,98600.45
2018-09-28T08:49:43.544Z,98599.31
2018-09-28T08:50:48.945Z,98602.27
2018-09-28T08:51:53.421Z,98605.34
2018-09-28T08:52:59.707Z,98603.20
2018-09-28T08:54:06.310Z,98604.84
2018-09-28T08:55:13.160Z,98607.48
2018-09-28T08:56:19.287Z,98605.91
2018-09-28T08:57:24.593Z,98604.97
2018-09-28T08:58:29.310Z,98604.20
2018-09-28T08:59:33.974Z,98605.03
2018-09-28T09:00:42.462Z,98600.94
2018-09-28T09:01:47.834Z,98599.98
2018-09-28T09:02:52.414Z,98605.56
2018-09-28T09:04:07.717Z,98610.92
2018-09-28T09:05:15.683Z,98611.67
2018-09-28T09:06:27.367Z,98614.11
2018-09-28T09:09:16.299Z,98618.89
2018-09-28T09:10:32.043Z,98613.50
2018-09-28T09:11:37.286Z,98610.50
2018-09-28T09:12:48.797Z,98606.40
2018-09-28T09:15:06.655Z,98612.55
2018-09-28T09:16:40.223Z,98607.09
2018-09-28T09:17:48.341Z,98612.48
2018-09-28T09:19:04.839Z,98613.61
2018-09-28T09:20:13.175Z,98615.51
2018-09-28T09:21:18.248Z,98615.30
2018-09-28T09:22:22.862Z,98622.46
2018-09-28T09:23:27.553Z,98616.55
2018-09-28T09:24:33.095Z,98620.83
2018-09-28T09:25:39.285Z,98625.04
2018-09-28T09:26:44.645Z,98625.55
2018-09-28T09:27:51.431Z,98628.92
2018-09-28T09:28:56.066Z,98633.92
2018-09-28T09:30:04.751Z,98627.64
2018-09-28T09:31:10.785Z,98630.48
2018-09-28T09:32:16.540Z,98634.94
2018-09-28T09:33:21.173Z,98629.71
2018-09-28T09:34:26.385Z,98628.75
2018-09-28T09:35:32.364Z,98631.67
2018-09-28T09:36:41.088Z,98634.92
2018-09-28T09:37:48.775Z,98631.41
2018-09-28T09:38:54.345Z,98635.98
2018-09-28T09:40:10.833Z,98633.48
2018-09-28T09:41:30.680Z,98629.58
2018-09-28T09:42:35.935Z,98632.09
2018-09-28T09:43:40.757Z,98631.55
2018-09-28T09:44:48.056Z,98629.44
2018-09-28T09:45:53.308Z,98633.98
2018-09-28T09:46:58.752Z,98634.59
2018-09-28T09:48:03.578Z,98635.49
2018-09-28T09:49:09.789Z,98634.69
2018-09-28T09:50:14.607Z,98631.70
2018-09-28T09:51:28.420Z,98629.86
2018-09-28T09:52:33.063Z,98633.23
2018-09-28T09:53:39.247Z,98631.60
2018-09-28T09:54:43.988Z,98628.96
2018-09-28T09:55:48.633Z,98630.29
2018-09-28T09:56:55.027Z,98628.28
2018-09-28T09:58:00.067Z,98632.22
2018-09-28T09:59:04.683Z,98627.53
2018-09-28T10:00:10.320Z,98629.13
2018-09-28T10:01:20.029Z,98630.89
2018-09-28T10:02:30.369Z,98631.97
2018-09-28T10:03:40.221Z,98629.41
2018-09-28T10:04:45.521Z,98628.72
2018-09-28T10:05:50.291Z,98631.31
2018-09-28T10:06:55.584Z,98630.29
2018-09-28T10:08:01.063Z,98630.95
2018-09-28T10:09:11.504Z,98632.70
2018-09-28T10:10:16.037Z,98635.14
2018-09-28T10:11:20.691Z,98634.74
2018-09-28T10:12:25.344Z,98630.92
2018-09-28T10:13:30.069Z,98635.59
2018-09-28T10:14:35.071Z,98632.94
2018-09-28T10:15:40.760Z,98639.61
2018-09-28T10:16:48.308Z,98640.14
2018-09-28T10:17:53.149Z,98635.38
2018-09-28T10:19:00.301Z,98634.73
2018-09-28T10:20:07.071Z,98635.46
2018-09-28T10:21:11.905Z,98639.81
2018-09-28T10:22:17.026Z,98637.13
2018-09-28T10:23:22.258Z,98633.91
2018-09-28T10:24:28.589Z,98646.45
2018-09-28T10:25:34.738Z,98640.79
2018-09-28T10:26:47.108Z,98638.91
2018-09-28T10:27:51.744Z,98640.42
2018-09-28T10:28:57.153Z,98640.88
2018-09-28T10:30:02.241Z,98635.46
2018-09-28T10:31:06.842Z,98643.56
2018-09-28T10:45:04.965Z,98641.14
2018-09-28T10:46:13.636Z,98634.44
2018-09-28T10:47:18.463Z,98640.39
2018-09-28T10:48:23.823Z,98647.06
2018-09-28T10:49:28.355Z,98638.84
2018-09-28T10:50:36.336Z,98642.38
2018-09-28T10:51:41.634Z,98646.08
2018-09-28T10:52:53.258Z,98647.57
2018-09-28T10:54:00.839Z,98642.09
2018-09-28T10:55:09.648Z,98644.14
2018-09-28T10:56:19.010Z,98646.05
2018-09-28T10:57:25.559Z,98645.97
2018-09-28T10:58:34.269Z,98648.69
2018-09-28T10:59:41.242Z,98653.98
2018-09-28T11:00:48.425Z,98647.23
2018-09-28T11:01:54.644Z,98651.09
2018-09-28T11:03:02.272Z,98649.11
2018-09-28T11:04:10.641Z,98651.43
2018-09-28T11:05:18.474Z,98651.68
2018-09-28T11:06:23.598Z,98659.16
2018-09-28T11:09:58.575Z,98659.09
2018-09-28T11:11:03.516Z,98656.94
2018-09-28T11:12:09.676Z,98657.63
2018-09-28T11:13:17.207Z,98668.25
2018-09-28T11:15:36.002Z,98662.16
2018-09-28T11:16:47.123Z,98665.94
2018-09-28T11:17:52.968Z,98663.73
2018-09-28T11:19:01.283Z,98665.08
2018-09-28T11:20:10.072Z,98663.91
2018-09-28T11:21:17.346Z,98664.36
2018-09-28T11:22:24.125Z,98662.65
2018-09-28T11:23:30.031Z,98667.48
2018-09-28T11:24:36.789Z,98660.08
2018-09-28T11:25:43.313Z,98659.92
2018-09-28T11:26:48.819Z,98660.89
2018-09-28T11:27:53.680Z,98658.41
2018-09-28T11:29:00.410Z,98654.13
2018-09-28T11:30:07.293Z,98656.91
2018-09-28T11:31:13.520Z,98657.11
2018-09-28T11:32:18.127Z,98659.39
2018-09-28T11:33:23.816Z,98658.45
2018-09-28T11:34:30.674Z,98652.87
2018-09-28T11:35:36.093Z,98646.41
2018-09-28T11:36:40.589Z,98645.97
2018-09-28T11:37:45.845Z,98633.59
2018-09-28T11:38:50.387Z,98636.84
2018-09-28T11:39:55.393Z,98637.50
2018-09-28T11:41:00.659Z,98643.06
2018-09-28T11:42:11.218Z,98654.12
2018-09-28T11:43:16.777Z,98659.73
2018-09-28T11:44:23.200Z,98661.19
2018-09-28T11:45:28.501Z,98663.34
2018-09-28T11:46:33.131Z,98665.84
2018-09-28T11:47:38.020Z,98665.23
2018-09-28T11:48:43.002Z,98668.63
2018-09-28T11:49:47.921Z,98672.89
2018-09-28T11:50:52.361Z,98679.89
2018-09-28T11:52:00.082Z,98676.11
2018-09-28T11:53:05.440Z,98676.60
2018-09-28T11:54:12.247Z,98682.78
2018-09-28T11:55:16.714Z,98680.30
2018-09-28T11:56:21.511Z,98680.75
2018-09-28T11:57:26.220Z,98676.68
2018-09-28T11:58:31.215Z,98683.72
2018-09-28T11:59:35.664Z,98678.34
2018-09-28T12:00:40.471Z,98687.94
2018-09-28T12:01:47.048Z,98685.13
2018-09-28T12:02:58.435Z,98680.08
2018-09-28T12:04:04.406Z,98681.70
2018-09-28T12:05:12.825Z,98683.78
2018-09-28T12:06:19.552Z,98680.29
2018-09-28T12:07:25.586Z,98682.73
2018-09-28T12:08:30.283Z,98680.37
2018-09-28T12:09:34.846Z,98686.67
2018-09-28T12:10:40.837Z,98683.33
2018-09-28T12:11:50.669Z,98682.31
2018-09-28T12:12:56.266Z,98681.96
2018-09-28T12:14:02.217Z,98684.54
2018-09-28T12:15:07.266Z,98685.64
2018-09-28T12:16:13.054Z,98684.88
2018-09-28T12:17:17.893Z,98676.66
2018-09-28T12:18:23.109Z,98676.05
2018-09-28T12:19:28.396Z,98679.34
2018-09-28T12:20:33.131Z,98673.53
2018-09-28T12:21:38.686Z,98672.97
2018-09-28T12:22:45.010Z,98670.81
2018-09-28T12:23:49.833Z,98681.34
2018-09-28T12:24:57.373Z,98676.51
2018-09-28T12:26:04.537Z,98677.73
2018-09-28T12:27:09.495Z,98689.37
2018-09-28T12:28:14.023Z,98681.03
2018-09-28T12:29:18.586Z,98684.98
2018-09-28T12:30:23.064Z,98686.40
2018-09-28T12:31:27.751Z,98686.92
2018-09-28T12:32:33.054Z,98687.38
2018-09-28T12:33:37.620Z,98682.78
2018-09-28T12:34:42.433Z,98685.67
2018-09-28T12:35:47.498Z,98683.67
2018-09-28T12:36:52.336Z,98685.70
2018-09-28T12:37:57.947Z,98688.98
2018-09-28T12:39:03.992Z,98686.39
2018-09-28T12:40:09.414Z,98694.31
2018-09-28T12:41:14.330Z,98688.45
2018-09-28T12:42:20.588Z,98693.27
2018-09-28T12:43:26.903Z,98693.62
2018-09-28T12:44:32.145Z,98696.23
2018-09-28T12:45:38.904Z,98697.34
2018-09-28T12:46:43.455Z,98690.95
2018-09-28T12:47:47.906Z,98696.08
2018-09-28T12:48:54.077Z,98693.42
2018-09-28T12:49:59.261Z,98697.13
2018-09-28T12:51:03.816Z,98699.88
2018-09-28T12:52:09.248Z,98693.62
2018-09-28T12:53:13.845Z,98697.56
2018-09-28T12:54:18.399Z,98696.25
2018-09-28T12:55:23.301Z,98698.69
2018-09-28T12:56:28.023Z,98700.16
2018-09-28T12:57:33.610Z,98704.03
2018-09-28T12:58:39.634Z,98701.27
2018-09-28T12:59:44.713Z,98706.99
2018-09-28T13:00:49.361Z,98707.58
2018-09-28T13:01:54.890Z,98706.55
2018-09-28T13:02:59.344Z,98705.89
2018-09-28T13:04:03.937Z,98710.11
2018-09-28T13:05:11.262Z,98703.08
2018-09-28T13:06:16.483Z,98710.72
2018-09-28T13:07:21.359Z,98711.06
2018-09-28T13:08:26.161Z,98706.63
2018-09-28T13:09:30.713Z,98702.90
2018-09-28T13:10:36.112Z,98705.28
2018-09-28T13:11:42.114Z,98704.97
2018-09-28T13:12:47.196Z,98717.09
2018-09-28T13:13:51.743Z,98705.13
2018-09-28T13:14:58.089Z,98715.29
2018-09-28T13:16:02.960Z,98715.29
2018-09-28T13:17:08.395Z,98709.80
2018-09-28T13:18:13.351Z,98718.11
2018-09-28T13:19:17.890Z,98706.31
2018-09-28T13:20:22.436Z,98707.81
2018-09-28T13:21:27.358Z,98706.26
2018-09-28T13:22:32.920Z,98710.56